Time,TemperatureF,DewpointF,PressureIn,WindDirection,WindDirectionDegrees,WindSpeedMPH,WindSpeedGustMPH,Humidity,HourlyPrecipIn,Conditions,Clouds,dailyrainin,SolarRadiationWatts/m^2,SoftwareType,DateUTC
2013-08-28 11:24:00,68.0,57.0,30.30,ENE,73,13.0,16.0,68,-99.99,,,-99.99,338.899994,,2013-08-28 17:24:00,
2013-08-28 11:35:00,68.0,57.0,30.30,ENE,73,13.0,16.0,68,-99.99,,,-99.99,338.899994,,2013-08-28 17:35:00,
2013-08-28 12:12:00,69.0,57.0,-100.00,East,85,11.0,16.0,66,-99.99,,,-99.99,339.600006,,2013-08-28 18:12:00,
2013-08-28 12:22:00,69.0,57.0,30.30,East,88,11.0,16.0,64,-99.99,,,-99.99,317.290009,,2013-08-28 18:22:00,
2013-08-28 12:32:00,69.0,57.0,30.30,East,88,11.0,16.0,64,-99.99,,,-99.99,317.290009,,2013-08-28 18:32:00,
2013-08-28 13:22:00,71.0,56.0,30.28,East,83,14.0,18.0,58,-99.99,,,-99.99,377.950012,,2013-08-28 19:22:00,
2013-08-28 13:42:00,71.0,56.0,30.28,ENE,78,13.0,17.0,58,-99.99,,,-99.99,332.630005,,2013-08-28 19:42:00,
2013-08-28 13:52:00,71.0,56.0,30.28,ENE,77,14.0,19.0,59,-99.99,,,-99.99,317.290009,,2013-08-28 19:52:00,
2013-08-28 14:12:00,71.0,56.0,-100.00,ENE,77,13.0,17.0,58,-99.99,,,-99.99,280.329987,,2013-08-28 20:12:00,
2013-08-28 14:23:00,72.0,56.0,30.28,ENE,72,11.0,16.0,56,-99.99,,,-99.99,320.079987,,2013-08-28 20:23:00,
2013-08-28 14:43:00,72.0,56.0,30.28,East,82,14.0,21.0,57,-99.99,,,-99.99,291.489990,,2013-08-28 20:43:00,
2013-08-28 14:52:00,71.0,56.0,-100.00,East,84,15.0,22.0,58,-99.99,,,-99.99,242.669998,,2013-08-28 20:52:00,
2013-08-28 15:01:00,71.0,56.0,-100.00,East,84,15.0,22.0,58,-99.99,,,-99.99,242.669998,,2013-08-28 21:01:00,
2013-08-28 15:22:00,70.0,57.0,30.28,East,86,12.0,18.0,62,-99.99,,,-99.99,158.289993,,2013-08-28 21:22:00,
2013-08-28 15:44:00,70.0,57.0,-100.00,ENE,73,10.0,16.0,62,-99.99,,,-99.99,137.369995,,2013-08-28 21:44:00,
2013-08-28 16:25:00,71.0,57.0,30.27,ESE,117,3.0,8.0,62,-99.99,,,-99.99,96.230003,,2013-08-28 22:25:00,
2013-08-28 16:43:00,69.0,59.0,30.27,WSW,249,8.0,11.0,69,-99.99,,,-99.99,89.959999,,2013-08-28 22:43:00,
2013-08-28 16:54:00,69.0,59.0,-100.00,WSW,249,8.0,11.0,69,-99.99,,,-99.99,89.959999,,2013-08-28 22:54:00,
2013-08-28 17:13:00,67.0,60.0,-100.00,WSW,254,13.0,16.0,79,-99.99,,,-99.99,92.750000,,2013-08-28 23:13:00,
2013-08-28 17:22:00,67.0,61.0,30.27,West,268,12.0,15.0,83,-99.99,,,-99.99,99.019997,,2013-08-28 23:22:00,
2013-08-28 17:42:00,66.0,62.0,-100.00,West,265,11.0,13.0,84,-99.99,,,-99.99,91.349998,,2013-08-28 23:42:00,
2013-08-28 18:11:00,66.0,63.0,-100.00,West,271,9.0,11.0,90,-99.99,,,-99.99,59.270000,,2013-08-29 00:11:00,
2013-08-28 19:22:00,64.0,64.0,30.27,West,276,13.0,15.0,99,-99.99,,,-99.99,10.460000,,2013-08-29 01:22:00,
2013-08-28 19:42:00,64.0,64.0,-100.00,West,274,13.0,14.0,99,-99.99,,,-99.99,5.580000,,2013-08-29 01:42:00,
2013-08-28 20:22:00,64.0,64.0,30.28,WSW,255,7.0,9.0,99,-99.99,,,-99.99,0.000000,,2013-08-29 02:22:00,
2013-08-28 21:11:00,64.0,64.0,-100.00,West,268,3.0,5.0,99,-99.99,,,-99.99,0.000000,,2013-08-29 03:11:00,
2013-08-28 21:23:00,63.0,63.0,30.30,NW,319,1.0,4.0,98,-99.99,,,-99.99,0.000000,,2013-08-29 03:23:00,
2013-08-28 21:45:00,66.0,59.0,-100.00,ENE,63,5.0,7.0,76,-99.99,,,-99.99,0.000000,,2013-08-29 03:45:00,
2013-08-28 22:28:00,68.0,57.0,-100.00,ENE,67,8.0,9.0,67,-99.99,,,-99.99,0.000000,,2013-08-29 04:28:00,
2013-08-28 22:45:00,68.0,56.0,-100.00,ENE,73,6.0,8.0,67,-99.99,,,-99.99,0.000000,,2013-08-29 04:45:00,
2013-08-28 22:54:00,68.0,56.0,30.32,ENE,78,5.0,6.0,66,-99.99,,,-99.99,0.000000,,2013-08-29 04:54:00,
2013-08-28 23:14:00,68.0,56.0,-100.00,ENE,77,5.0,6.0,65,-99.99,,,-99.99,0.000000,,2013-08-29 05:14:00,
2013-08-28 23:23:00,68.0,56.0,30.32,East,79,5.0,6.0,65,-99.99,,,-99.99,0.000000,,2013-08-29 05:23:00,
2013-08-28 23:42:00,68.0,56.0,30.32,ENE,78,4.0,5.0,65,-99.99,,,-99.99,0.000000,,2013-08-29 05:42:00,